sensor_id;sensor_type;location;lat;lon;timestamp;P1;durP1;ratioP1;P2;durP2;ratioP2
70213;SDS011;60138;55.808;37.078;2023-03-14T00:02:17;4.13;;;3.73;;
70213;SDS011;60138;55.808;37.078;2023-03-14T00:04:43;4.67;;;4.20;;
70213;SDS011;60138;55.808;37.078;2023-03-14T00:07:10;5.90;;;4.50;;
70213;SDS011;60138;55.808;37.078;2023-03-14T00:09:36;5.27;;;4.03;;
70213;SDS011;60138;55.808;37.078;2023-03-14T00:12:02;4.65;;;4.18;;
70213;SDS011;60138;55.808;37.078;2023-03-14T00:14:28;4.45;;;3.97;;
70213;SDS011;60138;55.808;37.078;2023-03-14T00:16:54;5.27;;;4.10;;
70213;SDS011;60138;55.808;37.078;2023-03-14T00:19:20;4.90;;;4.43;;
70213;SDS011;60138;55.808;37.078;2023-03-14T00:21:46;8.43;;;4.93;;
70213;SDS011;60138;55.808;37.078;2023-03-14T00:24:12;7.97;;;4.13;;
70213;SDS011;60138;55.808;37.078;2023-03-14T00:26:37;6.13;;;5.10;;
70213;SDS011;60138;55.808;37.078;2023-03-14T00:29:05;5.00;;;3.80;;
70213;SDS011;60138;55.808;37.078;2023-03-14T00:31:30;5.77;;;5.00;;
70213;SDS011;60138;55.808;37.078;2023-03-14T00:33:56;6.93;;;4.78;;
70213;SDS011;60138;55.808;37.078;2023-03-14T00:36:23;4.83;;;4.17;;
70213;SDS011;60138;55.808;37.078;2023-03-14T00:38:49;4.75;;;4.00;;
70213;SDS011;60138;55.808;37.078;2023-03-14T00:41:17;4.90;;;4.28;;
70213;SDS011;60138;55.808;37.078;2023-03-14T00:43:44;4.85;;;4.35;;
70213;SDS011;60138;55.808;37.078;2023-03-14T00:46:11;5.80;;;4.28;;
70213;SDS011;60138;55.808;37.078;2023-03-14T00:48:37;7.05;;;4.72;;
70213;SDS011;60138;55.808;37.078;2023-03-14T00:51:04;7.13;;;4.33;;
70213;SDS011;60138;55.808;37.078;2023-03-14T00:53:31;6.07;;;4.63;;
70213;SDS011;60138;55.808;37.078;2023-03-14T00:56:02;4.80;;;4.10;;
70213;SDS011;60138;55.808;37.078;2023-03-14T00:58:32;5.47;;;4.10;;
70213;SDS011;60138;55.808;37.078;2023-03-14T01:00:57;4.70;;;4.15;;
70213;SDS011;60138;55.808;37.078;2023-03-14T01:03:24;6.38;;;4.07;;
70213;SDS011;60138;55.808;37.078;2023-03-14T01:05:50;5.57;;;4.15;;
70213;SDS011;60138;55.808;37.078;2023-03-14T01:08:15;7.30;;;5.07;;
70213;SDS011;60138;55.808;37.078;2023-03-14T01:10:41;4.70;;;3.90;;
70213;SDS011;60138;55.808;37.078;2023-03-14T01:13:07;5.13;;;4.25;;
70213;SDS011;60138;55.808;37.078;2023-03-14T01:15:35;4.68;;;4.28;;
70213;SDS011;60138;55.808;37.078;2023-03-14T01:18:02;5.05;;;4.60;;
70213;SDS011;60138;55.808;37.078;2023-03-14T01:20:28;6.22;;;4.60;;
70213;SDS011;60138;55.808;37.078;2023-03-14T01:22:54;6.25;;;4.88;;
70213;SDS011;60138;55.808;37.078;2023-03-14T01:25:20;5.55;;;4.38;;
70213;SDS011;60138;55.808;37.078;2023-03-14T01:27:46;4.82;;;4.05;;
70213;SDS011;60138;55.808;37.078;2023-03-14T01:30:12;8.07;;;4.23;;
70213;SDS011;60138;55.808;37.078;2023-03-14T01:32:38;7.03;;;4.60;;
70213;SDS011;60138;55.808;37.078;2023-03-14T01:35:04;5.45;;;4.70;;
70213;SDS011;60138;55.808;37.078;2023-03-14T01:37:31;6.47;;;4.87;;
70213;SDS011;60138;55.808;37.078;2023-03-14T01:39:57;5.85;;;4.15;;
70213;SDS011;60138;55.808;37.078;2023-03-14T01:42:22;5.23;;;4.50;;
70213;SDS011;60138;55.808;37.078;2023-03-14T01:47:21;9.97;;;5.53;;
70213;SDS011;60138;55.808;37.078;2023-03-14T01:49:53;4.80;;;3.95;;
70213;SDS011;60138;55.808;37.078;2023-03-14T01:52:35;6.35;;;4.45;;
70213;SDS011;60138;55.808;37.078;2023-03-14T01:55:05;6.85;;;5.13;;
70213;SDS011;60138;55.808;37.078;2023-03-14T02:01:28;6.00;;;5.40;;
70213;SDS011;60138;55.808;37.078;2023-03-14T02:03:55;6.88;;;5.53;;
70213;SDS011;60138;55.808;37.078;2023-03-14T02:06:33;7.40;;;4.93;;
70213;SDS011;60138;55.808;37.078;2023-03-14T02:09:05;8.60;;;4.82;;
70213;SDS011;60138;55.808;37.078;2023-03-14T02:11:33;6.50;;;5.07;;
70213;SDS011;60138;55.808;37.078;2023-03-14T02:14:32;7.53;;;5.40;;
70213;SDS011;60138;55.808;37.078;2023-03-14T02:17:22;6.97;;;5.43;;
70213;SDS011;60138;55.808;37.078;2023-03-14T02:22:38;10.25;;;6.10;;
70213;SDS011;60138;55.808;37.078;2023-03-14T02:27:34;9.25;;;6.32;;
70213;SDS011;60138;55.808;37.078;2023-03-14T02:30:02;7.13;;;6.13;;
70213;SDS011;60138;55.808;37.078;2023-03-14T02:32:32;10.48;;;6.15;;
70213;SDS011;60138;55.808;37.078;2023-03-14T02:35:03;7.43;;;5.45;;
70213;SDS011;60138;55.808;37.078;2023-03-14T02:37:35;7.90;;;5.43;;
70213;SDS011;60138;55.808;37.078;2023-03-14T02:40:13;7.63;;;5.90;;
70213;SDS011;60138;55.808;37.078;2023-03-14T02:42:41;6.28;;;5.30;;
70213;SDS011;60138;55.808;37.078;2023-03-14T02:47:34;8.53;;;5.40;;
70213;SDS011;60138;55.808;37.078;2023-03-14T02:50:06;7.20;;;5.00;;
70213;SDS011;60138;55.808;37.078;2023-03-14T02:52:39;6.90;;;5.03;;
70213;SDS011;60138;55.808;37.078;2023-03-14T02:55:06;7.18;;;5.53;;
70213;SDS011;60138;55.808;37.078;2023-03-14T02:57:34;7.70;;;5.22;;
70213;SDS011;60138;55.808;37.078;2023-03-14T03:00:00;7.80;;;4.93;;
70213;SDS011;60138;55.808;37.078;2023-03-14T03:02:31;7.33;;;5.10;;
70213;SDS011;60138;55.808;37.078;2023-03-14T03:04:57;10.40;;;6.60;;
70213;SDS011;60138;55.808;37.078;2023-03-14T03:07:23;9.05;;;6.25;;
70213;SDS011;60138;55.808;37.078;2023-03-14T03:09:49;6.68;;;5.10;;
70213;SDS011;60138;55.808;37.078;2023-03-14T03:12:15;10.52;;;6.45;;
70213;SDS011;60138;55.808;37.078;2023-03-14T03:14:41;8.10;;;5.85;;
70213;SDS011;60138;55.808;37.078;2023-03-14T03:17:07;7.47;;;6.00;;
70213;SDS011;60138;55.808;37.078;2023-03-14T03:19:33;10.38;;;5.63;;
70213;SDS011;60138;55.808;37.078;2023-03-14T03:21:59;6.72;;;5.90;;
70213;SDS011;60138;55.808;37.078;2023-03-14T03:24:25;8.90;;;6.13;;
70213;SDS011;60138;55.808;37.078;2023-03-14T03:26:53;6.45;;;5.63;;
70213;SDS011;60138;55.808;37.078;2023-03-14T03:29:19;7.13;;;5.20;;
70213;SDS011;60138;55.808;37.078;2023-03-14T03:31:45;10.50;;;6.60;;
70213;SDS011;60138;55.808;37.078;2023-03-14T03:34:12;8.43;;;6.68;;
70213;SDS011;60138;55.808;37.078;2023-03-14T03:36:39;8.40;;;6.43;;
70213;SDS011;60138;55.808;37.078;2023-03-14T03:39:05;9.45;;;5.95;;
70213;SDS011;60138;55.808;37.078;2023-03-14T03:41:31;8.00;;;5.80;;
70213;SDS011;60138;55.808;37.078;2023-03-14T03:43:58;8.07;;;5.38;;
70213;SDS011;60138;55.808;37.078;2023-03-14T03:46:24;10.02;;;5.65;;
70213;SDS011;60138;55.808;37.078;2023-03-14T03:48:54;9.90;;;5.83;;
70213;SDS011;60138;55.808;37.078;2023-03-14T03:51:21;9.52;;;6.15;;
70213;SDS011;60138;55.808;37.078;2023-03-14T03:53:47;7.03;;;5.68;;
70213;SDS011;60138;55.808;37.078;2023-03-14T03:56:17;9.63;;;6.07;;
70213;SDS011;60138;55.808;37.078;2023-03-14T03:58:43;7.80;;;5.90;;
70213;SDS011;60138;55.808;37.078;2023-03-14T04:01:09;7.65;;;5.90;;
70213;SDS011;60138;55.808;37.078;2023-03-14T04:03:35;8.82;;;6.03;;
70213;SDS011;60138;55.808;37.078;2023-03-14T04:06:02;7.20;;;5.87;;
70213;SDS011;60138;55.808;37.078;2023-03-14T04:08:30;8.38;;;6.85;;
70213;SDS011;60138;55.808;37.078;2023-03-14T04:10:57;9.35;;;6.90;;
70213;SDS011;60138;55.808;37.078;2023-03-14T04:13:38;8.60;;;6.53;;
70213;SDS011;60138;55.808;37.078;2023-03-14T04:16:08;8.05;;;6.10;;
70213;SDS011;60138;55.808;37.078;2023-03-14T04:18:40;10.00;;;6.80;;
70213;SDS011;60138;55.808;37.078;2023-03-14T04:21:05;9.73;;;6.78;;
70213;SDS011;60138;55.808;37.078;2023-03-14T04:23:41;10.85;;;6.35;;
70213;SDS011;60138;55.808;37.078;2023-03-14T04:26:07;7.83;;;5.63;;
70213;SDS011;60138;55.808;37.078;2023-03-14T04:28:33;9.45;;;6.20;;
70213;SDS011;60138;55.808;37.078;2023-03-14T04:30:59;8.82;;;6.78;;
70213;SDS011;60138;55.808;37.078;2023-03-14T04:33:33;10.43;;;5.90;;
70213;SDS011;60138;55.808;37.078;2023-03-14T04:35:58;7.63;;;6.17;;
70213;SDS011;60138;55.808;37.078;2023-03-14T04:38:24;8.73;;;6.95;;
70213;SDS011;60138;55.808;37.078;2023-03-14T04:40:51;10.07;;;7.20;;
70213;SDS011;60138;55.808;37.078;2023-03-14T04:43:18;8.63;;;6.57;;
70213;SDS011;60138;55.808;37.078;2023-03-14T04:45:53;9.75;;;6.93;;
70213;SDS011;60138;55.808;37.078;2023-03-14T04:48:19;10.50;;;7.43;;
70213;SDS011;60138;55.808;37.078;2023-03-14T04:50:46;9.25;;;7.40;;
70213;SDS011;60138;55.808;37.078;2023-03-14T04:53:13;7.95;;;6.53;;
70213;SDS011;60138;55.808;37.078;2023-03-14T04:55:41;9.35;;;6.90;;
70213;SDS011;60138;55.808;37.078;2023-03-14T04:58:08;8.35;;;6.43;;
70213;SDS011;60138;55.808;37.078;2023-03-14T05:00:34;10.70;;;7.07;;
70213;SDS011;60138;55.808;37.078;2023-03-14T05:03:25;10.18;;;6.90;;
70213;SDS011;60138;55.808;37.078;2023-03-14T05:06:05;10.40;;;6.95;;
70213;SDS011;60138;55.808;37.078;2023-03-14T05:08:57;9.13;;;7.07;;
70213;SDS011;60138;55.808;37.078;2023-03-14T05:11:41;6.57;;;5.33;;
70213;SDS011;60138;55.808;37.078;2023-03-14T05:14:28;8.90;;;6.90;;
70213;SDS011;60138;55.808;37.078;2023-03-14T05:17:16;14.32;;;7.28;;
70213;SDS011;60138;55.808;37.078;2023-03-14T05:20:09;9.65;;;6.97;;
70213;SDS011;60138;55.808;37.078;2023-03-14T05:22:51;11.33;;;7.90;;
70213;SDS011;60138;55.808;37.078;2023-03-14T05:25:37;8.65;;;6.30;;
70213;SDS011;60138;55.808;37.078;2023-03-14T05:28:31;8.77;;;6.55;;
70213;SDS011;60138;55.808;37.078;2023-03-14T05:31:17;8.68;;;7.25;;
70213;SDS011;60138;55.808;37.078;2023-03-14T05:33:42;10.47;;;7.27;;
70213;SDS011;60138;55.808;37.078;2023-03-14T05:36:29;9.48;;;6.55;;
70213;SDS011;60138;55.808;37.078;2023-03-14T05:39:03;7.97;;;5.70;;
70213;SDS011;60138;55.808;37.078;2023-03-14T05:41:42;8.43;;;6.13;;
70213;SDS011;60138;55.808;37.078;2023-03-14T05:44:34;8.65;;;6.15;;
70213;SDS011;60138;55.808;37.078;2023-03-14T05:47:31;8.88;;;6.78;;
70213;SDS011;60138;55.808;37.078;2023-03-14T05:50:31;8.32;;;6.00;;
70213;SDS011;60138;55.808;37.078;2023-03-14T05:53:20;10.65;;;6.65;;
70213;SDS011;60138;55.808;37.078;2023-03-14T05:55:52;10.70;;;6.35;;
70213;SDS011;60138;55.808;37.078;2023-03-14T05:58:38;10.40;;;7.00;;
70213;SDS011;60138;55.808;37.078;2023-03-14T06:01:04;10.63;;;7.35;;
70213;SDS011;60138;55.808;37.078;2023-03-14T06:03:45;10.73;;;7.57;;
70213;SDS011;60138;55.808;37.078;2023-03-14T06:06:11;7.50;;;5.30;;
70213;SDS011;60138;55.808;37.078;2023-03-14T06:08:37;15.95;;;7.85;;
70213;SDS011;60138;55.808;37.078;2023-03-14T06:11:04;13.07;;;6.88;;
70213;SDS011;60138;55.808;37.078;2023-03-14T06:13:30;10.37;;;5.97;;
70213;SDS011;60138;55.808;37.078;2023-03-14T06:15:56;10.65;;;6.90;;
70213;SDS011;60138;55.808;37.078;2023-03-14T06:18:21;8.90;;;6.23;;
70213;SDS011;60138;55.808;37.078;2023-03-14T06:20:47;12.02;;;7.55;;
70213;SDS011;60138;55.808;37.078;2023-03-14T06:23:21;11.85;;;7.07;;
70213;SDS011;60138;55.808;37.078;2023-03-14T06:25:47;10.57;;;7.37;;
70213;SDS011;60138;55.808;37.078;2023-03-14T06:28:13;13.30;;;7.07;;
70213;SDS011;60138;55.808;37.078;2023-03-14T06:30:39;12.50;;;7.07;;
70213;SDS011;60138;55.808;37.078;2023-03-14T06:33:07;10.63;;;7.70;;
70213;SDS011;60138;55.808;37.078;2023-03-14T06:35:33;12.00;;;7.30;;
70213;SDS011;60138;55.808;37.078;2023-03-14T06:37:59;12.90;;;6.73;;
70213;SDS011;60138;55.808;37.078;2023-03-14T06:40:24;22.95;;;7.10;;
70213;SDS011;60138;55.808;37.078;2023-03-14T06:42:57;13.80;;;6.95;;
70213;SDS011;60138;55.808;37.078;2023-03-14T06:45:26;23.43;;;7.13;;
70213;SDS011;60138;55.808;37.078;2023-03-14T06:47:52;14.88;;;7.65;;
70213;SDS011;60138;55.808;37.078;2023-03-14T06:50:22;23.52;;;6.47;;
70213;SDS011;60138;55.808;37.078;2023-03-14T06:52:48;16.95;;;7.00;;
70213;SDS011;60138;55.808;37.078;2023-03-14T06:55:17;16.63;;;7.15;;
70213;SDS011;60138;55.808;37.078;2023-03-14T06:57:43;23.88;;;8.30;;
70213;SDS011;60138;55.808;37.078;2023-03-14T07:00:10;20.02;;;7.72;;
70213;SDS011;60138;55.808;37.078;2023-03-14T07:02:37;16.95;;;7.50;;
70213;SDS011;60138;55.808;37.078;2023-03-14T07:05:05;16.05;;;6.82;;
70213;SDS011;60138;55.808;37.078;2023-03-14T07:07:31;26.77;;;8.07;;
70213;SDS011;60138;55.808;37.078;2023-03-14T07:09:57;22.70;;;7.20;;
70213;SDS011;60138;55.808;37.078;2023-03-14T07:12:22;21.13;;;8.85;;
70213;SDS011;60138;55.808;37.078;2023-03-14T07:14:48;27.87;;;7.83;;
70213;SDS011;60138;55.808;37.078;2023-03-14T07:17:14;19.57;;;7.80;;
70213;SDS011;60138;55.808;37.078;2023-03-14T07:19:39;14.75;;;7.35;;
70213;SDS011;60138;55.808;37.078;2023-03-14T07:22:07;21.95;;;7.95;;
70213;SDS011;60138;55.808;37.078;2023-03-14T07:24:32;29.03;;;8.63;;
70213;SDS011;60138;55.808;37.078;2023-03-14T07:26:59;15.40;;;8.38;;
70213;SDS011;60138;55.808;37.078;2023-03-14T07:29:25;21.77;;;9.47;;
70213;SDS011;60138;55.808;37.078;2023-03-14T07:31:51;22.95;;;8.07;;
70213;SDS011;60138;55.808;37.078;2023-03-14T07:34:19;25.52;;;8.20;;
70213;SDS011;60138;55.808;37.078;2023-03-14T07:36:45;22.07;;;7.20;;
70213;SDS011;60138;55.808;37.078;2023-03-14T07:39:10;24.70;;;7.90;;
70213;SDS011;60138;55.808;37.078;2023-03-14T07:41:47;24.50;;;8.52;;
70213;SDS011;60138;55.808;37.078;2023-03-14T07:44:39;35.43;;;8.10;;
70213;SDS011;60138;55.808;37.078;2023-03-14T07:47:04;23.15;;;8.38;;
70213;SDS011;60138;55.808;37.078;2023-03-14T07:49:30;22.77;;;8.83;;
70213;SDS011;60138;55.808;37.078;2023-03-14T07:51:56;32.53;;;9.02;;
70213;SDS011;60138;55.808;37.078;2023-03-14T07:54:21;27.45;;;9.57;;
70213;SDS011;60138;55.808;37.078;2023-03-14T07:56:47;31.63;;;9.77;;
70213;SDS011;60138;55.808;37.078;2023-03-14T07:59:12;32.53;;;9.63;;
70213;SDS011;60138;55.808;37.078;2023-03-14T08:01:38;25.83;;;8.48;;
70213;SDS011;60138;55.808;37.078;2023-03-14T08:04:04;31.07;;;9.77;;
70213;SDS011;60138;55.808;37.078;2023-03-14T08:06:29;29.05;;;8.70;;
70213;SDS011;60138;55.808;37.078;2023-03-14T08:08:55;31.17;;;8.83;;
70213;SDS011;60138;55.808;37.078;2023-03-14T08:11:21;38.10;;;10.00;;
70213;SDS011;60138;55.808;37.078;2023-03-14T08:13:46;31.53;;;9.30;;
70213;SDS011;60138;55.808;37.078;2023-03-14T08:16:12;32.50;;;10.63;;
70213;SDS011;60138;55.808;37.078;2023-03-14T08:18:38;24.10;;;9.00;;
70213;SDS011;60138;55.808;37.078;2023-03-14T08:21:03;30.83;;;10.20;;
70213;SDS011;60138;55.808;37.078;2023-03-14T08:23:29;26.40;;;9.23;;
70213;SDS011;60138;55.808;37.078;2023-03-14T08:25:55;30.40;;;11.30;;
70213;SDS011;60138;55.808;37.078;2023-03-14T08:28:20;27.90;;;9.33;;
70213;SDS011;60138;55.808;37.078;2023-03-14T08:30:46;25.58;;;10.38;;
70213;SDS011;60138;55.808;37.078;2023-03-14T08:33:12;25.23;;;8.77;;
70213;SDS011;60138;55.808;37.078;2023-03-14T08:35:37;23.02;;;8.45;;
70213;SDS011;60138;55.808;37.078;2023-03-14T08:38:03;16.83;;;8.43;;
70213;SDS011;60138;55.808;37.078;2023-03-14T08:40:29;21.05;;;8.52;;
70213;SDS011;60138;55.808;37.078;2023-03-14T08:42:54;18.83;;;7.87;;
70213;SDS011;60138;55.808;37.078;2023-03-14T08:45:20;25.42;;;9.40;;
70213;SDS011;60138;55.808;37.078;2023-03-14T08:47:46;25.67;;;9.00;;
70213;SDS011;60138;55.808;37.078;2023-03-14T08:50:12;21.20;;;8.73;;
70213;SDS011;60138;55.808;37.078;2023-03-14T08:52:38;21.83;;;8.27;;
70213;SDS011;60138;55.808;37.078;2023-03-14T08:55:04;28.55;;;9.02;;
70213;SDS011;60138;55.808;37.078;2023-03-14T08:57:29;18.53;;;7.77;;
70213;SDS011;60138;55.808;37.078;2023-03-14T08:59:56;21.63;;;9.00;;
70213;SDS011;60138;55.808;37.078;2023-03-14T09:02:22;20.95;;;9.55;;
70213;SDS011;60138;55.808;37.078;2023-03-14T09:04:51;19.43;;;7.73;;
70213;SDS011;60138;55.808;37.078;2023-03-14T09:07:18;20.73;;;8.88;;
70213;SDS011;60138;55.808;37.078;2023-03-14T09:09:44;16.05;;;8.63;;
70213;SDS011;60138;55.808;37.078;2023-03-14T09:12:10;17.23;;;8.05;;
70213;SDS011;60138;55.808;37.078;2023-03-14T09:14:36;21.50;;;8.83;;
70213;SDS011;60138;55.808;37.078;2023-03-14T09:17:02;15.02;;;7.70;;
70213;SDS011;60138;55.808;37.078;2023-03-14T09:19:29;17.65;;;8.10;;
70213;SDS011;60138;55.808;37.078;2023-03-14T09:21:55;16.60;;;7.65;;
70213;SDS011;60138;55.808;37.078;2023-03-14T09:24:21;14.67;;;7.10;;
70213;SDS011;60138;55.808;37.078;2023-03-14T09:26:46;14.95;;;8.15;;
70213;SDS011;60138;55.808;37.078;2023-03-14T09:29:12;18.63;;;8.83;;
70213;SDS011;60138;55.808;37.078;2023-03-14T09:31:38;18.63;;;9.07;;
70213;SDS011;60138;55.808;37.078;2023-03-14T09:34:04;18.38;;;7.50;;
70213;SDS011;60138;55.808;37.078;2023-03-14T09:36:29;17.63;;;8.20;;
70213;SDS011;60138;55.808;37.078;2023-03-14T09:38:56;17.40;;;8.65;;
70213;SDS011;60138;55.808;37.078;2023-03-14T09:41:26;20.55;;;9.23;;
70213;SDS011;60138;55.808;37.078;2023-03-14T09:44:00;16.08;;;8.55;;
70213;SDS011;60138;55.808;37.078;2023-03-14T09:46:38;18.07;;;8.63;;
70213;SDS011;60138;55.808;37.078;2023-03-14T09:49:13;18.88;;;8.30;;
70213;SDS011;60138;55.808;37.078;2023-03-14T09:51:46;21.75;;;8.35;;
70213;SDS011;60138;55.808;37.078;2023-03-14T09:54:24;22.48;;;8.35;;
70213;SDS011;60138;55.808;37.078;2023-03-14T09:57:03;15.98;;;9.05;;
70213;SDS011;60138;55.808;37.078;2023-03-14T09:59:30;24.07;;;9.03;;
70213;SDS011;60138;55.808;37.078;2023-03-14T10:02:04;13.77;;;8.60;;
70213;SDS011;60138;55.808;37.078;2023-03-14T10:04:39;14.60;;;8.00;;
70213;SDS011;60138;55.808;37.078;2023-03-14T10:07:08;22.65;;;9.45;;
70213;SDS011;60138;55.808;37.078;2023-03-14T10:09:38;23.10;;;9.60;;
70213;SDS011;60138;55.808;37.078;2023-03-14T10:12:03;17.73;;;7.93;;
70213;SDS011;60138;55.808;37.078;2023-03-14T10:14:33;24.77;;;8.87;;
70213;SDS011;60138;55.808;37.078;2023-03-14T10:17:05;23.20;;;9.13;;
70213;SDS011;60138;55.808;37.078;2023-03-14T10:19:32;16.15;;;8.73;;
70213;SDS011;60138;55.808;37.078;2023-03-14T10:22:00;19.17;;;8.63;;
70213;SDS011;60138;55.808;37.078;2023-03-14T10:24:27;22.37;;;8.53;;
70213;SDS011;60138;55.808;37.078;2023-03-14T10:27:00;21.70;;;8.82;;
70213;SDS011;60138;55.808;37.078;2023-03-14T10:29:31;25.33;;;10.30;;
70213;SDS011;60138;55.808;37.078;2023-03-14T10:32:02;22.45;;;8.93;;
70213;SDS011;60138;55.808;37.078;2023-03-14T10:34:34;20.92;;;9.85;;
70213;SDS011;60138;55.808;37.078;2023-03-14T10:37:23;24.03;;;9.67;;
70213;SDS011;60138;55.808;37.078;2023-03-14T10:39:52;18.23;;;9.25;;
70213;SDS011;60138;55.808;37.078;2023-03-14T10:42:26;19.90;;;8.63;;
70213;SDS011;60138;55.808;37.078;2023-03-14T10:44:54;26.50;;;9.10;;
70213;SDS011;60138;55.808;37.078;2023-03-14T10:47:23;20.98;;;10.00;;
70213;SDS011;60138;55.808;37.078;2023-03-14T10:49:50;24.90;;;9.43;;
70213;SDS011;60138;55.808;37.078;2023-03-14T10:54:59;22.48;;;8.63;;
70213;SDS011;60138;55.808;37.078;2023-03-14T10:57:29;23.20;;;9.52;;
70213;SDS011;60138;55.808;37.078;2023-03-14T10:59:55;20.13;;;9.60;;
70213;SDS011;60138;55.808;37.078;2023-03-14T11:02:45;19.75;;;9.32;;
70213;SDS011;60138;55.808;37.078;2023-03-14T11:08:23;17.60;;;9.80;;
70213;SDS011;60138;55.808;37.078;2023-03-14T11:10:51;18.20;;;8.63;;
70213;SDS011;60138;55.808;37.078;2023-03-14T11:13:23;20.63;;;9.63;;
70213;SDS011;60138;55.808;37.078;2023-03-14T11:22:47;14.73;;;8.97;;
70213;SDS011;60138;55.808;37.078;2023-03-14T11:33:20;15.63;;;7.45;;
70213;SDS011;60138;55.808;37.078;2023-03-14T11:43:53;14.98;;;8.52;;
70213;SDS011;60138;55.808;37.078;2023-03-14T11:46:28;14.98;;;7.45;;
70213;SDS011;60138;55.808;37.078;2023-03-14T11:52:01;13.82;;;7.80;;
70213;SDS011;60138;55.808;37.078;2023-03-14T11:54:48;16.65;;;8.57;;
70213;SDS011;60138;55.808;37.078;2023-03-14T11:57:39;13.30;;;8.27;;
70213;SDS011;60138;55.808;37.078;2023-03-14T12:02:47;11.97;;;7.70;;
70213;SDS011;60138;55.808;37.078;2023-03-14T12:05:41;16.40;;;9.52;;
70213;SDS011;60138;55.808;37.078;2023-03-14T12:13:15;16.42;;;8.30;;
70213;SDS011;60138;55.808;37.078;2023-03-14T12:15:55;19.35;;;8.10;;
70213;SDS011;60138;55.808;37.078;2023-03-14T12:18:32;15.02;;;8.75;;
70213;SDS011;60138;55.808;37.078;2023-03-14T12:21:01;14.27;;;8.35;;
70213;SDS011;60138;55.808;37.078;2023-03-14T12:23:37;17.20;;;9.23;;
70213;SDS011;60138;55.808;37.078;2023-03-14T12:26:23;15.15;;;7.95;;
70213;SDS011;60138;55.808;37.078;2023-03-14T12:29:15;13.85;;;8.23;;
70213;SDS011;60138;55.808;37.078;2023-03-14T12:31:41;14.38;;;7.85;;
70213;SDS011;60138;55.808;37.078;2023-03-14T12:42:03;16.63;;;9.07;;
70213;SDS011;60138;55.808;37.078;2023-03-14T12:49:42;18.77;;;8.90;;
70213;SDS011;60138;55.808;37.078;2023-03-14T12:52:13;13.25;;;8.20;;
70213;SDS011;60138;55.808;37.078;2023-03-14T12:55:04;17.30;;;8.60;;
70213;SDS011;60138;55.808;37.078;2023-03-14T12:57:41;13.40;;;8.43;;
70213;SDS011;60138;55.808;37.078;2023-03-14T13:00:22;17.92;;;8.77;;
70213;SDS011;60138;55.808;37.078;2023-03-14T13:02:58;11.10;;;7.23;;
70213;SDS011;60138;55.808;37.078;2023-03-14T13:06:00;12.40;;;7.55;;
70213;SDS011;60138;55.808;37.078;2023-03-14T13:08:35;13.75;;;8.43;;
70213;SDS011;60138;55.808;37.078;2023-03-14T13:11:07;14.20;;;7.80;;
70213;SDS011;60138;55.808;37.078;2023-03-14T13:13:47;14.25;;;8.85;;
70213;SDS011;60138;55.808;37.078;2023-03-14T13:16:16;12.93;;;7.73;;
70213;SDS011;60138;55.808;37.078;2023-03-14T13:18:45;13.77;;;8.50;;
70213;SDS011;60138;55.808;37.078;2023-03-14T13:21:16;13.63;;;8.63;;
70213;SDS011;60138;55.808;37.078;2023-03-14T13:26:36;16.17;;;8.68;;
70213;SDS011;60138;55.808;37.078;2023-03-14T13:29:24;13.00;;;8.40;;
70213;SDS011;60138;55.808;37.078;2023-03-14T13:31:52;11.98;;;8.10;;
70213;SDS011;60138;55.808;37.078;2023-03-14T13:34:19;10.55;;;7.30;;
70213;SDS011;60138;55.808;37.078;2023-03-14T13:36:45;13.18;;;6.97;;
70213;SDS011;60138;55.808;37.078;2023-03-14T13:39:19;15.32;;;8.98;;
70213;SDS011;60138;55.808;37.078;2023-03-14T13:41:46;12.93;;;8.07;;
70213;SDS011;60138;55.808;37.078;2023-03-14T13:44:23;12.00;;;7.43;;
70213;SDS011;60138;55.808;37.078;2023-03-14T13:47:01;11.65;;;6.97;;
70213;SDS011;60138;55.808;37.078;2023-03-14T13:49:30;10.70;;;7.40;;
70213;SDS011;60138;55.808;37.078;2023-03-14T13:51:58;10.48;;;8.77;;
70213;SDS011;60138;55.808;37.078;2023-03-14T13:54:25;9.87;;;7.57;;
70213;SDS011;60138;55.808;37.078;2023-03-14T13:57:02;12.07;;;6.63;;
70213;SDS011;60138;55.808;37.078;2023-03-14T13:59:30;11.93;;;7.73;;
70213;SDS011;60138;55.808;37.078;2023-03-14T14:01:58;9.35;;;7.53;;
70213;SDS011;60138;55.808;37.078;2023-03-14T14:04:25;12.40;;;7.22;;
70213;SDS011;60138;55.808;37.078;2023-03-14T14:07:00;11.13;;;7.93;;
70213;SDS011;60138;55.808;37.078;2023-03-14T14:09:39;11.73;;;7.05;;
70213;SDS011;60138;55.808;37.078;2023-03-14T14:12:17;10.57;;;7.23;;
70213;SDS011;60138;55.808;37.078;2023-03-14T14:17:35;11.70;;;7.90;;
70213;SDS011;60138;55.808;37.078;2023-03-14T14:22:53;9.80;;;6.35;;
70213;SDS011;60138;55.808;37.078;2023-03-14T14:25:19;10.87;;;7.67;;
70213;SDS011;60138;55.808;37.078;2023-03-14T14:27:47;10.45;;;6.35;;
70213;SDS011;60138;55.808;37.078;2023-03-14T14:32:43;9.07;;;6.80;;
70213;SDS011;60138;55.808;37.078;2023-03-14T14:35:22;9.57;;;6.22;;
70213;SDS011;60138;55.808;37.078;2023-03-14T14:37:57;12.07;;;6.85;;
70213;SDS011;60138;55.808;37.078;2023-03-14T14:40:24;10.32;;;7.75;;
70213;SDS011;60138;55.808;37.078;2023-03-14T14:42:52;8.77;;;6.73;;
70213;SDS011;60138;55.808;37.078;2023-03-14T14:45:22;9.63;;;6.35;;
70213;SDS011;60138;55.808;37.078;2023-03-14T14:47:50;8.90;;;6.18;;
70213;SDS011;60138;55.808;37.078;2023-03-14T14:50:39;8.65;;;6.43;;
70213;SDS011;60138;55.808;37.078;2023-03-14T14:53:26;10.15;;;7.03;;
70213;SDS011;60138;55.808;37.078;2023-03-14T14:55:56;14.07;;;6.40;;
70213;SDS011;60138;55.808;37.078;2023-03-14T14:58:29;9.95;;;6.80;;
70213;SDS011;60138;55.808;37.078;2023-03-14T15:03:33;11.07;;;6.68;;
70213;SDS011;60138;55.808;37.078;2023-03-14T15:06:00;11.00;;;6.80;;
70213;SDS011;60138;55.808;37.078;2023-03-14T15:08:27;8.30;;;6.17;;
70213;SDS011;60138;55.808;37.078;2023-03-14T15:10:53;11.20;;;6.85;;
70213;SDS011;60138;55.808;37.078;2023-03-14T15:13:20;10.90;;;6.63;;
70213;SDS011;60138;55.808;37.078;2023-03-14T15:15:46;8.77;;;6.88;;
70213;SDS011;60138;55.808;37.078;2023-03-14T15:18:16;8.73;;;6.10;;
70213;SDS011;60138;55.808;37.078;2023-03-14T15:20:44;9.50;;;6.25;;
70213;SDS011;60138;55.808;37.078;2023-03-14T15:23:11;7.88;;;6.80;;
70213;SDS011;60138;55.808;37.078;2023-03-14T15:25:37;10.30;;;6.88;;
70213;SDS011;60138;55.808;37.078;2023-03-14T15:28:05;8.98;;;6.88;;
70213;SDS011;60138;55.808;37.078;2023-03-14T15:30:41;9.03;;;5.90;;
70213;SDS011;60138;55.808;37.078;2023-03-14T15:33:06;9.45;;;6.82;;
70213;SDS011;60138;55.808;37.078;2023-03-14T15:35:32;12.83;;;7.30;;
70213;SDS011;60138;55.808;37.078;2023-03-14T15:37:57;8.50;;;5.63;;
70213;SDS011;60138;55.808;37.078;2023-03-14T15:40:23;11.32;;;7.18;;
70213;SDS011;60138;55.808;37.078;2023-03-14T15:42:50;8.95;;;6.15;;
70213;SDS011;60138;55.808;37.078;2023-03-14T15:45:15;7.47;;;6.00;;
70213;SDS011;60138;55.808;37.078;2023-03-14T15:47:41;8.63;;;6.25;;
70213;SDS011;60138;55.808;37.078;2023-03-14T15:50:08;9.30;;;6.67;;
70213;SDS011;60138;55.808;37.078;2023-03-14T15:52:34;9.52;;;6.45;;
70213;SDS011;60138;55.808;37.078;2023-03-14T15:55:00;10.47;;;5.90;;
70213;SDS011;60138;55.808;37.078;2023-03-14T15:57:26;7.30;;;5.50;;
70213;SDS011;60138;55.808;37.078;2023-03-14T15:59:52;8.37;;;6.17;;
70213;SDS011;60138;55.808;37.078;2023-03-14T16:02:17;10.38;;;7.03;;
70213;SDS011;60138;55.808;37.078;2023-03-14T16:04:43;7.67;;;6.57;;